sensor_id;sensor_type;location;lat;lon;timestamp;pressure;altitude;pressure_sealevel;temperature;humidity
71774;BME280;59607;52.130;5.430;2023-03-04T00:01:12;102793.41;;;5.96;85.65
71774;BME280;59607;52.130;5.430;2023-03-04T00:03:53;102803.81;;;5.96;85.94
71774;BME280;59607;52.130;5.430;2023-03-04T00:06:25;102802.16;;;5.95;85.99
71774;BME280;59607;52.130;5.430;2023-03-04T00:08:51;102796.94;;;5.95;86.38
71774;BME280;59607;52.130;5.430;2023-03-04T00:11:24;102806.44;;;5.96;86.69
71774;BME280;59607;52.130;5.430;2023-03-04T00:13:54;102800.38;;;5.96;86.82
71774;BME280;59607;52.130;5.430;2023-03-04T00:16:23;102801.22;;;5.96;87.12
71774;BME280;59607;52.130;5.430;2023-03-04T00:18:57;102803.75;;;5.98;87.05
71774;BME280;59607;52.130;5.430;2023-03-04T00:21:23;102796.84;;;5.97;87.17
71774;BME280;59607;52.130;5.430;2023-03-04T00:23:50;102801.91;;;6.00;87.00
71774;BME280;59607;52.130;5.430;2023-03-04T00:26:17;102791.47;;;6.00;86.80
71774;BME280;59607;52.130;5.430;2023-03-04T00:28:43;102800.13;;;6.00;86.91
71774;BME280;59607;52.130;5.430;2023-03-04T00:31:19;102800.19;;;5.99;86.73
71774;BME280;59607;52.130;5.430;2023-03-04T00:33:45;102796.69;;;6.00;87.09
71774;BME280;59607;52.130;5.430;2023-03-04T00:36:13;102796.84;;;5.97;86.69
71774;BME280;59607;52.130;5.430;2023-03-04T00:38:44;102800.44;;;5.94;86.48
71774;BME280;59607;52.130;5.430;2023-03-04T00:41:11;102798.88;;;5.91;87.05
71774;BME280;59607;52.130;5.430;2023-03-04T00:43:46;102801.47;;;5.91;86.64
71774;BME280;59607;52.130;5.430;2023-03-04T00:46:13;102794.72;;;5.87;86.80
71774;BME280;59607;52.130;5.430;2023-03-04T00:48:39;102792.97;;;5.88;86.83
71774;BME280;59607;52.130;5.430;2023-03-04T00:51:11;102790.38;;;5.88;86.49
71774;BME280;59607;52.130;5.430;2023-03-04T00:53:38;102793.81;;;5.88;86.72
71774;BME280;59607;52.130;5.430;2023-03-04T00:56:07;102795.50;;;5.89;87.39
71774;BME280;59607;52.130;5.430;2023-03-04T00:58:36;102797.94;;;5.92;87.70
71774;BME280;59607;52.130;5.430;2023-03-04T01:01:06;102796.94;;;5.95;87.79
71774;BME280;59607;52.130;5.430;2023-03-04T01:03:39;102803.06;;;5.94;87.90
71774;BME280;59607;52.130;5.430;2023-03-04T01:06:08;102797.94;;;5.92;87.00
71774;BME280;59607;52.130;5.430;2023-03-04T01:08:39;102797.13;;;5.92;87.12
71774;BME280;59607;52.130;5.430;2023-03-04T01:11:06;102803.31;;;5.89;86.93
71774;BME280;59607;52.130;5.430;2023-03-04T01:13:33;102796.34;;;5.90;87.33
71774;BME280;59607;52.130;5.430;2023-03-04T01:15:59;102794.72;;;5.87;87.01
71774;BME280;59607;52.130;5.430;2023-03-04T01:18:30;102792.88;;;5.89;87.47
71774;BME280;59607;52.130;5.430;2023-03-04T01:20:57;102796.19;;;5.93;87.84
71774;BME280;59607;52.130;5.430;2023-03-04T01:23:38;102797.94;;;5.92;88.22
71774;BME280;59607;52.130;5.430;2023-03-04T01:26:12;102791.91;;;5.92;88.62
71774;BME280;59607;52.130;5.430;2023-03-04T01:28:44;102792.63;;;5.94;89.03
71774;BME280;59607;52.130;5.430;2023-03-04T01:31:12;102780.56;;;5.93;88.89
71774;BME280;59607;52.130;5.430;2023-03-04T01:33:39;102783.06;;;5.95;89.33
71774;BME280;59607;52.130;5.430;2023-03-04T01:36:08;102780.13;;;6.01;89.66
71774;BME280;59607;52.130;5.430;2023-03-04T01:38:37;102777.78;;;5.96;88.35
71774;BME280;59607;52.130;5.430;2023-03-04T01:41:03;102778.03;;;5.91;87.75
71774;BME280;59607;52.130;5.430;2023-03-04T01:43:30;102781.47;;;5.92;88.12
71774;BME280;59607;52.130;5.430;2023-03-04T01:46:02;102775.34;;;5.93;88.56
71774;BME280;59607;52.130;5.430;2023-03-04T01:48:33;102763.09;;;5.95;88.49
71774;BME280;59607;52.130;5.430;2023-03-04T01:51:27;102763.97;;;5.94;88.13
71774;BME280;59607;52.130;5.430;2023-03-04T01:53:54;102763.31;;;5.90;87.14
71774;BME280;59607;52.130;5.430;2023-03-04T01:56:37;102758.09;;;5.90;87.56
71774;BME280;59607;52.130;5.430;2023-03-04T02:02:22;102757.09;;;5.93;87.45
71774;BME280;59607;52.130;5.430;2023-03-04T02:04:52;102750.16;;;5.93;87.16
71774;BME280;59607;52.130;5.430;2023-03-04T02:07:18;102746.84;;;5.90;87.01
71774;BME280;59607;52.130;5.430;2023-03-04T02:09:45;102750.28;;;5.90;85.14
71774;BME280;59607;52.130;5.430;2023-03-04T02:12:31;102750.53;;;5.86;82.95
71774;BME280;59607;52.130;5.430;2023-03-04T02:14:58;102743.66;;;5.85;82.85
71774;BME280;59607;52.130;5.430;2023-03-04T02:17:25;102738.28;;;5.88;82.63
71774;BME280;59607;52.130;5.430;2023-03-04T02:23:00;102734.91;;;5.86;83.07
71774;BME280;59607;52.130;5.430;2023-03-04T02:28:24;102731.31;;;5.88;83.86
71774;BME280;59607;52.130;5.430;2023-03-04T02:30:51;102730.56;;;5.86;83.86
71774;BME280;59607;52.130;5.430;2023-03-04T02:33:28;102728.72;;;5.88;83.99
71774;BME280;59607;52.130;5.430;2023-03-04T02:35:55;102721.81;;;5.87;84.51
71774;BME280;59607;52.130;5.430;2023-03-04T02:38:26;102718.28;;;5.88;84.55
71774;BME280;59607;52.130;5.430;2023-03-04T02:40:56;102722.66;;;5.88;84.47
71774;BME280;59607;52.130;5.430;2023-03-04T02:43:23;102720.22;;;5.85;84.81
71774;BME280;59607;52.130;5.430;2023-03-04T02:45:50;102718.38;;;5.87;85.22
71774;BME280;59607;52.130;5.430;2023-03-04T02:48:24;102713.44;;;5.82;84.85
71774;BME280;59607;52.130;5.430;2023-03-04T02:50:53;102709.31;;;5.78;84.74
71774;BME280;59607;52.130;5.430;2023-03-04T02:53:22;102716.22;;;5.79;85.12
71774;BME280;59607;52.130;5.430;2023-03-04T02:55:50;102708.47;;;5.77;84.73
71774;BME280;59607;52.130;5.430;2023-03-04T02:58:23;102712.00;;;5.76;84.62
71774;BME280;59607;52.130;5.430;2023-03-04T03:00:49;102718.13;;;5.75;84.85
71774;BME280;59607;52.130;5.430;2023-03-04T03:03:18;102718.22;;;5.74;84.10
71774;BME280;59607;52.130;5.430;2023-03-04T03:05:45;102707.13;;;5.70;82.76
71774;BME280;59607;52.130;5.430;2023-03-04T03:08:11;102709.63;;;5.72;83.01
71774;BME280;59607;52.130;5.430;2023-03-04T03:10:38;102703.59;;;5.71;82.48
71774;BME280;59607;52.130;5.430;2023-03-04T03:13:11;102699.22;;;5.72;82.23
71774;BME280;59607;52.130;5.430;2023-03-04T03:15:38;102694.09;;;5.70;82.31
71774;BME280;59607;52.130;5.430;2023-03-04T03:18:16;102688.03;;;5.70;82.21
71774;BME280;59607;52.130;5.430;2023-03-04T03:21:03;102684.38;;;5.74;82.46
71774;BME280;59607;52.130;5.430;2023-03-04T03:23:36;102686.03;;;5.75;82.09
71774;BME280;59607;52.130;5.430;2023-03-04T03:26:02;102690.47;;;5.73;81.85
71774;BME280;59607;52.130;5.430;2023-03-04T03:28:50;102687.06;;;5.72;82.19
71774;BME280;59607;52.130;5.430;2023-03-04T03:31:19;102676.81;;;5.69;82.15
71774;BME280;59607;52.130;5.430;2023-03-04T03:33:46;102688.81;;;5.72;82.94
71774;BME280;59607;52.130;5.430;2023-03-04T03:36:12;102677.47;;;5.73;82.55
71774;BME280;59607;52.130;5.430;2023-03-04T03:38:39;102682.50;;;5.76;82.66
71774;BME280;59607;52.130;5.430;2023-03-04T03:41:10;102679.84;;;5.77;83.05
71774;BME280;59607;52.130;5.430;2023-03-04T03:43:36;102681.59;;;5.77;83.28
71774;BME280;59607;52.130;5.430;2023-03-04T03:46:08;102678.13;;;5.76;83.58
71774;BME280;59607;52.130;5.430;2023-03-04T03:48:35;102682.44;;;5.77;83.79
71774;BME280;59607;52.130;5.430;2023-03-04T03:51:02;102675.53;;;5.76;84.10
71774;BME280;59607;52.130;5.430;2023-03-04T03:53:31;102677.38;;;5.74;84.94
71774;BME280;59607;52.130;5.430;2023-03-04T03:55:58;102680.81;;;5.75;85.17
71774;BME280;59607;52.130;5.430;2023-03-04T03:58:27;102681.69;;;5.75;85.64
71774;BME280;59607;52.130;5.430;2023-03-04T04:01:04;102681.00;;;5.72;86.23
71774;BME280;59607;52.130;5.430;2023-03-04T04:03:33;102682.66;;;5.73;86.69
71774;BME280;59607;52.130;5.430;2023-03-04T04:06:02;102683.44;;;5.75;87.20
71774;BME280;59607;52.130;5.430;2023-03-04T04:08:29;102696.38;;;5.76;87.88
71774;BME280;59607;52.130;5.430;2023-03-04T04:11:02;102689.66;;;5.72;89.48
71774;BME280;59607;52.130;5.430;2023-03-04T04:13:28;102693.00;;;5.74;90.42
71774;BME280;59607;52.130;5.430;2023-03-04T04:15:55;102687.78;;;5.74;91.06
71774;BME280;59607;52.130;5.430;2023-03-04T04:18:26;102685.94;;;5.76;91.45
71774;BME280;59607;52.130;5.430;2023-03-04T04:20:53;102690.38;;;5.74;91.91
71774;BME280;59607;52.130;5.430;2023-03-04T04:23:20;102691.25;;;5.75;91.04
71774;BME280;59607;52.130;5.430;2023-03-04T04:25:49;102685.09;;;5.76;90.91
71774;BME280;59607;52.130;5.430;2023-03-04T04:28:15;102689.56;;;5.74;90.03
71774;BME280;59607;52.130;5.430;2023-03-04T04:30:42;102686.03;;;5.75;89.81
71774;BME280;59607;52.130;5.430;2023-03-04T04:33:17;102692.00;;;5.77;89.69
71774;BME280;59607;52.130;5.430;2023-03-04T04:35:50;102689.31;;;5.78;89.49
71774;BME280;59607;52.130;5.430;2023-03-04T04:38:16;102688.47;;;5.78;89.84
71774;BME280;59607;52.130;5.430;2023-03-04T04:40:43;102686.81;;;5.77;90.30
71774;BME280;59607;52.130;5.430;2023-03-04T04:43:09;102701.47;;;5.78;90.20
71774;BME280;59607;52.130;5.430;2023-03-04T04:45:41;102691.25;;;5.75;90.43
71774;BME280;59607;52.130;5.430;2023-03-04T04:48:07;102699.22;;;5.72;87.69
71774;BME280;59607;52.130;5.430;2023-03-04T04:50:34;102704.69;;;5.67;86.34
71774;BME280;59607;52.130;5.430;2023-03-04T04:53:04;102695.38;;;5.63;85.76
71774;BME280;59607;52.130;5.430;2023-03-04T04:55:33;102701.41;;;5.63;85.85
71774;BME280;59607;52.130;5.430;2023-03-04T04:58:07;102695.28;;;5.64;86.22
71774;BME280;59607;52.130;5.430;2023-03-04T05:00:34;102691.00;;;5.63;86.32
71774;BME280;59607;52.130;5.430;2023-03-04T05:03:00;102694.28;;;5.67;86.90
71774;BME280;59607;52.130;5.430;2023-03-04T05:05:32;102700.06;;;5.72;86.79
71774;BME280;59607;52.130;5.430;2023-03-04T05:07:59;102680.81;;;5.75;87.04
71774;BME280;59607;52.130;5.430;2023-03-04T05:10:34;102690.38;;;5.74;86.87
71774;BME280;59607;52.130;5.430;2023-03-04T05:13:01;102686.03;;;5.75;86.56
71774;BME280;59607;52.130;5.430;2023-03-04T05:15:27;102680.06;;;5.73;87.17
71774;BME280;59607;52.130;5.430;2023-03-04T05:17:59;102689.41;;;5.77;86.83
71774;BME280;59607;52.130;5.430;2023-03-04T05:20:26;102682.50;;;5.76;87.11
71774;BME280;59607;52.130;5.430;2023-03-04T05:22:56;102681.59;;;5.77;87.28
71774;BME280;59607;52.130;5.430;2023-03-04T05:25:22;102691.16;;;5.76;87.28
71774;BME280;59607;52.130;5.430;2023-03-04T05:27:48;102684.19;;;5.77;87.49
71774;BME280;59607;52.130;5.430;2023-03-04T05:30:21;102691.16;;;5.76;88.07
71774;BME280;59607;52.130;5.430;2023-03-04T05:32:55;102695.38;;;5.79;88.21
71774;BME280;59607;52.130;5.430;2023-03-04T05:35:24;102690.25;;;5.77;88.93
71774;BME280;59607;52.130;5.430;2023-03-04T05:37:54;102692.69;;;5.80;88.73
71774;BME280;59607;52.130;5.430;2023-03-04T05:40:20;102689.22;;;5.80;89.05
71774;BME280;59607;52.130;5.430;2023-03-04T05:42:53;102690.97;;;5.79;89.77
71774;BME280;59607;52.130;5.430;2023-03-04T05:45:20;102690.97;;;5.79;90.01
71774;BME280;59607;52.130;5.430;2023-03-04T05:47:56;102696.09;;;5.81;90.30
71774;BME280;59607;52.130;5.430;2023-03-04T05:50:23;102692.69;;;5.80;90.46
71774;BME280;59607;52.130;5.430;2023-03-04T05:52:54;102690.97;;;5.79;91.35
71774;BME280;59607;52.130;5.430;2023-03-04T05:55:23;102691.84;;;5.80;91.90
71774;BME280;59607;52.130;5.430;2023-03-04T05:57:49;102690.91;;;5.81;92.24
71774;BME280;59607;52.130;5.430;2023-03-04T06:00:17;102685.88;;;5.78;92.14
71774;BME280;59607;52.130;5.430;2023-03-04T06:02:51;102681.34;;;5.82;92.60
71774;BME280;59607;52.130;5.430;2023-03-04T06:05:25;102687.47;;;5.80;92.32
71774;BME280;59607;52.130;5.430;2023-03-04T06:07:51;102690.97;;;5.79;92.99
71774;BME280;59607;52.130;5.430;2023-03-04T06:10:27;102692.59;;;5.82;93.09
71774;BME280;59607;52.130;5.430;2023-03-04T06:12:53;102682.28;;;5.80;93.33
71774;BME280;59607;52.130;5.430;2023-03-04T06:15:22;102689.06;;;5.83;93.73
71774;BME280;59607;52.130;5.430;2023-03-04T06:17:51;102688.13;;;5.84;93.69
71774;BME280;59607;52.130;5.430;2023-03-04T06:20:18;102686.53;;;5.82;93.88
71774;BME280;59607;52.130;5.430;2023-03-04T06:22:44;102684.03;;;5.80;93.96
71774;BME280;59607;52.130;5.430;2023-03-04T06:25:15;102688.28;;;5.81;94.15
71774;BME280;59607;52.130;5.430;2023-03-04T06:27:42;102689.16;;;5.82;94.29
71774;BME280;59607;52.130;5.430;2023-03-04T06:30:13;102690.00;;;5.82;94.69
71774;BME280;59607;52.130;5.430;2023-03-04T06:32:47;102695.19;;;5.82;94.61
71774;BME280;59607;52.130;5.430;2023-03-04T06:35:16;102694.28;;;5.83;94.71
71774;BME280;59607;52.130;5.430;2023-03-04T06:37:47;102682.91;;;5.84;95.27
71774;BME280;59607;52.130;5.430;2023-03-04T06:40:24;102691.50;;;5.86;95.15
71774;BME280;59607;52.130;5.430;2023-03-04T06:42:51;102696.88;;;5.83;95.35
71774;BME280;59607;52.130;5.430;2023-03-04T06:45:18;102694.19;;;5.85;95.69
71774;BME280;59607;52.130;5.430;2023-03-04T06:47:48;102698.44;;;5.86;95.64
71774;BME280;59607;52.130;5.430;2023-03-04T06:50:14;102695.94;;;5.84;95.97
71774;BME280;59607;52.130;5.430;2023-03-04T06:52:41;102696.78;;;5.85;96.65
71774;BME280;59607;52.130;5.430;2023-03-04T06:55:19;102694.19;;;5.85;96.80
71774;BME280;59607;52.130;5.430;2023-03-04T06:57:53;102695.28;;;5.80;97.56
71774;BME280;59607;52.130;5.430;2023-03-04T07:00:20;102700.16;;;5.87;97.30
71774;BME280;59607;52.130;5.430;2023-03-04T07:02:46;102705.38;;;5.87;97.16
71774;BME280;59607;52.130;5.430;2023-03-04T07:05:18;102703.50;;;5.89;97.30
71774;BME280;59607;52.130;5.430;2023-03-04T07:07:44;102708.47;;;5.93;97.37
71774;BME280;59607;52.130;5.430;2023-03-04T07:10:12;102713.50;;;5.97;96.94
71774;BME280;59607;52.130;5.430;2023-03-04T07:12:49;102712.66;;;5.96;97.13
71774;BME280;59607;52.130;5.430;2023-03-04T07:15:18;102716.19;;;5.95;97.05
71774;BME280;59607;52.130;5.430;2023-03-04T07:17:47;102720.31;;;5.99;98.06
71774;BME280;59607;52.130;5.430;2023-03-04T07:20:17;102710.06;;;5.96;99.12
71774;BME280;59607;52.130;5.430;2023-03-04T07:22:46;102711.47;;;6.02;99.71
71774;BME280;59607;52.130;5.430;2023-03-04T07:25:13;102715.94;;;6.16;100.00
71774;BME280;59607;52.130;5.430;2023-03-04T07:27:45;102709.63;;;6.20;99.90
71774;BME280;59607;52.130;5.430;2023-03-04T07:30:14;102720.63;;;6.25;99.77
71774;BME280;59607;52.130;5.430;2023-03-04T07:32:41;102709.28;;;6.26;99.72
71774;BME280;59607;52.130;5.430;2023-03-04T07:35:29;102708.31;;;6.44;99.78
71774;BME280;59607;52.130;5.430;2023-03-04T07:37:55;102711.78;;;6.59;99.22
71774;BME280;59607;52.130;5.430;2023-03-04T07:40:22;102706.38;;;6.62;98.83
71774;BME280;59607;52.130;5.430;2023-03-04T07:42:58;102713.50;;;6.60;98.76
71774;BME280;59607;52.130;5.430;2023-03-04T07:45:25;102717.59;;;6.78;98.11
71774;BME280;59607;52.130;5.430;2023-03-04T07:57:51;102723.41;;;6.84;97.53
71774;BME280;59607;52.130;5.430;2023-03-04T08:00:18;102715.38;;;6.87;98.01
71774;BME280;59607;52.130;5.430;2023-03-04T08:02:45;102726.97;;;6.97;98.02
71774;BME280;59607;52.130;5.430;2023-03-04T08:05:11;102725.09;;;6.99;96.85
71774;BME280;59607;52.130;5.430;2023-03-04T08:07:41;102731.06;;;7.01;97.20
71774;BME280;59607;52.130;5.430;2023-03-04T08:10:11;102723.13;;;7.03;96.60
71774;BME280;59607;52.130;5.430;2023-03-04T08:12:40;102726.97;;;7.12;96.31
71774;BME280;59607;52.130;5.430;2023-03-04T08:15:07;102728.94;;;7.08;95.46
71774;BME280;59607;52.130;5.430;2023-03-04T08:17:35;102728.06;;;7.08;96.14
71774;BME280;59607;52.130;5.430;2023-03-04T08:20:04;102736.66;;;7.10;95.87
71774;BME280;59607;52.130;5.430;2023-03-04T08:22:31;102736.09;;;7.19;96.40
71774;BME280;59607;52.130;5.430;2023-03-04T08:25:08;102739.66;;;7.18;97.53
71774;BME280;59607;52.130;5.430;2023-03-04T08:27:34;102739.75;;;7.16;98.18
71774;BME280;59607;52.130;5.430;2023-03-04T08:30:10;102736.66;;;7.10;99.59
71774;BME280;59607;52.130;5.430;2023-03-04T08:32:36;102741.78;;;7.26;99.50
71774;BME280;59607;52.130;5.430;2023-03-04T08:35:08;102741.13;;;7.37;98.80
71774;BME280;59607;52.130;5.430;2023-03-04T08:37:38;102741.03;;;7.38;99.02
71774;BME280;59607;52.130;5.430;2023-03-04T08:40:14;102741.13;;;7.51;99.13
71774;BME280;59607;52.130;5.430;2023-03-04T08:42:40;102738.03;;;7.59;98.88
71774;BME280;59607;52.130;5.430;2023-03-04T08:45:08;102739.91;;;7.57;97.26
71774;BME280;59607;52.130;5.430;2023-03-04T08:47:41;102735.44;;;7.45;97.14
71774;BME280;59607;52.130;5.430;2023-03-04T08:50:11;102734.50;;;7.46;98.07
71774;BME280;59607;52.130;5.430;2023-03-04T08:52:42;102736.28;;;7.45;97.82
71774;BME280;59607;52.130;5.430;2023-03-04T08:55:09;102734.50;;;7.60;100.00
71774;BME280;59607;52.130;5.430;2023-03-04T08:57:35;102744.28;;;7.71;99.81
71774;BME280;59607;52.130;5.430;2023-03-04T09:00:08;102742.72;;;7.54;100.00
71774;BME280;59607;52.130;5.430;2023-03-04T09:02:34;102738.88;;;7.45;100.00
71774;BME280;59607;52.130;5.430;2023-03-04T09:05:08;102734.41;;;7.62;100.00
71774;BME280;59607;52.130;5.430;2023-03-04T09:07:35;102728.69;;;7.70;100.00
71774;BME280;59607;52.130;5.430;2023-03-04T09:10:04;102736.25;;;7.74;100.00
71774;BME280;59607;52.130;5.430;2023-03-04T09:12:31;102740.25;;;7.80;99.58
71774;BME280;59607;52.130;5.430;2023-03-04T09:14:57;102730.19;;;8.01;99.45
71774;BME280;59607;52.130;5.430;2023-03-04T09:17:39;102722.28;;;8.16;98.18
71774;BME280;59607;52.130;5.430;2023-03-04T09:20:11;102721.69;;;8.12;98.11
71774;BME280;59607;52.130;5.430;2023-03-04T09:22:52;102725.66;;;8.18;98.08
71774;BME280;59607;52.130;5.430;2023-03-04T09:25:18;102717.91;;;8.17;97.55
71774;BME280;59607;52.130;5.430;2023-03-04T09:27:45;102724.81;;;8.18;97.71
71774;BME280;59607;52.130;5.430;2023-03-04T09:30:17;102722.97;;;8.33;98.09
71774;BME280;59607;52.130;5.430;2023-03-04T09:33:04;102727.56;;;8.29;96.22
71774;BME280;59607;52.130;5.430;2023-03-04T09:35:31;102730.56;;;8.23;96.36
71774;BME280;59607;52.130;5.430;2023-03-04T09:38:00;102731.19;;;8.13;98.17
71774;BME280;59607;52.130;5.430;2023-03-04T09:40:36;102723.81;;;8.33;97.42
71774;BME280;59607;52.130;5.430;2023-03-04T09:43:33;102717.09;;;8.29;96.58
71774;BME280;59607;52.130;5.430;2023-03-04T09:46:04;102719.81;;;8.27;96.53
71774;BME280;59607;52.130;5.430;2023-03-04T09:48:47;102715.00;;;8.21;97.24
71774;BME280;59607;52.130;5.430;2023-03-04T09:54:05;102709.09;;;8.45;96.92
71774;BME280;59607;52.130;5.430;2023-03-04T09:56:37;102711.03;;;8.56;94.84
71774;BME280;59607;52.130;5.430;2023-03-04T09:59:24;102703.47;;;8.64;94.89
71774;BME280;59607;52.130;5.430;2023-03-04T10:02:15;102696.06;;;8.97;94.07
71774;BME280;59607;52.130;5.430;2023-03-04T10:04:49;102697.75;;;9.11;90.58
71774;BME280;59607;52.130;5.430;2023-03-04T10:07:25;102698.25;;;8.91;90.82
71774;BME280;59607;52.130;5.430;2023-03-04T10:10:04;102689.38;;;8.93;91.33
71774;BME280;59607;52.130;5.430;2023-03-04T10:12:39;102693.88;;;8.91;90.31
71774;BME280;59607;52.130;5.430;2023-03-04T10:15:37;102695.34;;;8.82;91.28
71774;BME280;59607;52.130;5.430;2023-03-04T10:18:23;102688.31;;;8.70;93.30
71774;BME280;59607;52.130;5.430;2023-03-04T10:20:58;102696.78;;;8.60;94.98
71774;BME280;59607;52.130;5.430;2023-03-04T10:23:33;102691.25;;;8.65;94.49
71774;BME280;59607;52.130;5.430;2023-03-04T10:26:23;102695.75;;;8.76;94.21
71774;BME280;59607;52.130;5.430;2023-03-04T10:29:01;102684.47;;;8.88;92.63
71774;BME280;59607;52.130;5.430;2023-03-04T10:31:42;102688.31;;;8.96;92.64
71774;BME280;59607;52.130;5.430;2023-03-04T10:34:16;102684.44;;;9.15;91.09
71774;BME280;59607;52.130;5.430;2023-03-04T10:36:59;102682.03;;;9.24;89.69
71774;BME280;59607;52.130;5.430;2023-03-04T10:42:24;102676.66;;;9.39;87.42
71774;BME280;59607;52.130;5.430;2023-03-04T10:45:02;102678.34;;;9.27;86.13
71774;BME280;59607;52.130;5.430;2023-03-04T10:47:32;102678.56;;;9.11;86.63
71774;BME280;59607;52.130;5.430;2023-03-04T10:50:05;102683.63;;;8.88;86.63
71774;BME280;59607;52.130;5.430;2023-03-04T10:52:46;102682.06;;;8.98;86.61
71774;BME280;59607;52.130;5.430;2023-03-04T10:55:18;102678.81;;;9.45;86.13
71774;BME280;59607;52.130;5.430;2023-03-04T10:57:53;102672.97;;;9.66;82.68
71774;BME280;59607;52.130;5.430;2023-03-04T11:00:26;102674.13;;;9.62;82.51
71774;BME280;59607;52.130;5.430;2023-03-04T11:06:19;102670.91;;;9.21;86.07
71774;BME280;59607;52.130;5.430;2023-03-04T11:08:56;102668.66;;;9.03;87.71
71774;BME280;59607;52.130;5.430;2023-03-04T11:11:26;102675.03;;;8.99;90.19
71774;BME280;59607;52.130;5.430;2023-03-04T11:14:03;102679.22;;;8.88;93.05
71774;BME280;59607;52.130;5.430;2023-03-04T11:19:59;102683.19;;;8.55;100.00
71774;BME280;59607;52.130;5.430;2023-03-04T11:22:28;102676.25;;;8.41;100.00
71774;BME280;59607;52.130;5.430;2023-03-04T11:25:07;102676.25;;;8.41;100.00
71774;BME280;59607;52.130;5.430;2023-03-04T11:27:47;102683.97;;;8.30;100.00
71774;BME280;59607;52.130;5.430;2023-03-04T11:30:32;102687.81;;;8.11;100.00
71774;BME280;59607;52.130;5.430;2023-03-04T11:33:19;102685.81;;;7.87;100.00
71774;BME280;59607;52.130;5.430;2023-03-04T11:38:38;102664.97;;;7.72;100.00
71774;BME280;59607;52.130;5.430;2023-03-04T11:41:51;102670.63;;;7.79;100.00
71774;BME280;59607;52.130;5.430;2023-03-04T11:44:20;102662.03;;;8.05;100.00
71774;BME280;59607;52.130;5.430;2023-03-04T11:47:03;102661.25;;;8.17;100.00
71774;BME280;59607;52.130;5.430;2023-03-04T11:50:06;102660.66;;;8.39;100.00
71774;BME280;59607;52.130;5.430;2023-03-04T11:52:46;102664.63;;;8.45;100.00
71774;BME280;59607;52.130;5.430;2023-03-04T11:55:33;102659.75;;;8.67;100.00
71774;BME280;59607;52.130;5.430;2023-03-04T12:01:09;102642.38;;;9.42;98.47
71774;BME280;59607;52.130;5.430;2023-03-04T12:12:41;102634.59;;;9.16;87.82
71774;BME280;59607;52.130;5.430;2023-03-04T12:19:05;102634.00;;;8.86;89.28
71774;BME280;59607;52.130;5.430;2023-03-04T12:24:41;102627.94;;;8.73;87.60
71774;BME280;59607;52.130;5.430;2023-03-04T12:32:58;102633.16;;;8.99;86.41
71774;BME280;59607;52.130;5.430;2023-03-04T12:35:51;102623.72;;;9.09;85.14
71774;BME280;59607;52.130;5.430;2023-03-04T12:41:32;102618.06;;;9.03;81.84
71774;BME280;59607;52.130;5.430;2023-03-04T12:44:16;102624.09;;;9.29;80.57
71774;BME280;59607;52.130;5.430;2023-03-04T12:55:53;102601.91;;;9.46;79.14
71774;BME280;59607;52.130;5.430;2023-03-04T12:58:30;102590.19;;;9.63;77.85
71774;BME280;59607;52.130;5.430;2023-03-04T13:01:07;102597.28;;;9.50;74.99
71774;BME280;59607;52.130;5.430;2023-03-04T13:09:21;102602.41;;;8.76;80.76
71774;BME280;59607;52.130;5.430;2023-03-04T13:12:14;102607.84;;;8.73;81.91
71774;BME280;59607;52.130;5.430;2023-03-04T13:20:22;102596.78;;;7.90;89.63
71774;BME280;59607;52.130;5.430;2023-03-04T13:23:02;102603.25;;;7.84;90.55
71774;BME280;59607;52.130;5.430;2023-03-04T13:28:36;102595.66;;;7.94;91.70
71774;BME280;59607;52.130;5.430;2023-03-04T13:31:14;102590.22;;;7.97;93.15
71774;BME280;59607;52.130;5.430;2023-03-04T13:33:45;102590.84;;;7.88;93.25
71774;BME280;59607;52.130;5.430;2023-03-04T13:37:00;102605.16;;;7.95;94.42
71774;BME280;59607;52.130;5.430;2023-03-04T13:39:25;102590.34;;;8.09;93.87
71774;BME280;59607;52.130;5.430;2023-03-04T13:41:58;102578.03;;;8.37;92.21
71774;BME280;59607;52.130;5.430;2023-03-04T13:47:19;102582.00;;;8.30;85.76
71774;BME280;59607;52.130;5.430;2023-03-04T13:49:47;102581.91;;;8.44;85.62
71774;BME280;59607;52.130;5.430;2023-03-04T13:52:39;102578.03;;;8.63;83.25
71774;BME280;59607;52.130;5.430;2023-03-04T13:55:34;102574.91;;;8.32;82.48
71774;BME280;59607;52.130;5.430;2023-03-04T13:58:17;102569.66;;;8.19;82.96
71774;BME280;59607;52.130;5.430;2023-03-04T14:00:48;102579.59;;;8.13;82.57
71774;BME280;59607;52.130;5.430;2023-03-04T14:03:25;102577.25;;;7.96;82.49
71774;BME280;59607;52.130;5.430;2023-03-04T14:06:15;102569.75;;;7.91;83.29
71774;BME280;59607;52.130;5.430;2023-03-04T14:08:57;102569.84;;;8.02;80.00
71774;BME280;59607;52.130;5.430;2023-03-04T14:11:38;102560.22;;;8.03;75.61
71774;BME280;59607;52.130;5.430;2023-03-04T14:14:18;102558.75;;;7.86;74.12
71774;BME280;59607;52.130;5.430;2023-03-04T14:16:49;102574.41;;;7.86;74.44
71774;BME280;59607;52.130;5.430;2023-03-04T14:19:24;102567.53;;;7.85;73.66
71774;BME280;59607;52.130;5.430;2023-03-04T14:22:19;102558.25;;;8.07;74.45
71774;BME280;59607;52.130;5.430;2023-03-04T14:25:03;102570.28;;;8.09;74.01
71774;BME280;59607;52.130;5.430;2023-03-04T14:27:37;102565.44;;;8.03;74.73
71774;BME280;59607;52.130;5.430;2023-03-04T14:33:22;102563.66;;;7.90;72.93
71774;BME280;59607;52.130;5.430;2023-03-04T14:35:52;102554.38;;;7.99;72.59
71774;BME280;59607;52.130;5.430;2023-03-04T14:38:43;102554.91;;;8.05;73.50
71774;BME280;59607;52.130;5.430;2023-03-04T14:41:20;102550.41;;;8.07;70.66
71774;BME280;59607;52.130;5.430;2023-03-04T14:44:27;102553.75;;;8.09;72.85
71774;BME280;59607;52.130;5.430;2023-03-04T14:47:08;102545.59;;;8.13;71.61
71774;BME280;59607;52.130;5.430;2023-03-04T14:49:38;102544.75;;;8.26;71.33
71774;BME280;59607;52.130;5.430;2023-03-04T14:52:37;102540.69;;;8.22;70.71
71774;BME280;59607;52.130;5.430;2023-03-04T14:55:16;102536.59;;;8.31;71.04
71774;BME280;59607;52.130;5.430;2023-03-04T14:57:46;102523.53;;;8.31;70.70
71774;BME280;59607;52.130;5.430;2023-03-04T15:00:31;102535.91;;;8.29;70.72